Aviation Digital Data Service (ADDS)

Output produced by METARs form (0508 UTC 16 February 2019)
found at http://www.aviationweather.gov/metar/data/
 
Forecast for: ANYN (NAURU ISLAND , AU)
Text: TAF ANYN 160103Z 1606/1706 32015G26KT 9999 -SHRA SCT018 BKN140 T 28 27 25 24 Q 1006 1008 1007 1005
Forecast period: 0600 UTC 16 February 2019 to 0600 UTC 17 February 2019
Forecast type: FROM: standard forecast or significant change
Winds: from the NW (320 degrees) at 17 MPH (15 knots; 7.7 m/s)
gusting to 30 MPH (26 knots; 13.4 m/s)
Visibility: 6 or more miles 10+ km)
Ceiling: 14000 feet AGL
Clouds: scattered clouds at 1800 feet AGL
broken clouds at 14000 feet AGL
Weather: -SHRA  (light rain showers)